sensor_id;sensor_type;location;lat;lon;timestamp;P1;durP1;ratioP1;P2;durP2;ratioP2
11614;SDS011;5863;52.832;4.758;2023-05-19T00:01:47;9.40;;;3.70;;
11614;SDS011;5863;52.832;4.758;2023-05-19T00:04:16;6.15;;;3.42;;
11614;SDS011;5863;52.832;4.758;2023-05-19T00:06:43;7.70;;;3.45;;
11614;SDS011;5863;52.832;4.758;2023-05-19T00:09:16;6.70;;;3.35;;
11614;SDS011;5863;52.832;4.758;2023-05-19T00:11:43;5.63;;;3.45;;
11614;SDS011;5863;52.832;4.758;2023-05-19T00:14:10;9.40;;;3.80;;
11614;SDS011;5863;52.832;4.758;2023-05-19T00:16:37;6.57;;;3.53;;
11614;SDS011;5863;52.832;4.758;2023-05-19T00:19:06;7.03;;;3.47;;
11614;SDS011;5863;52.832;4.758;2023-05-19T00:21:34;6.93;;;3.40;;
11614;SDS011;5863;52.832;4.758;2023-05-19T00:24:02;9.00;;;3.80;;
11614;SDS011;5863;52.832;4.758;2023-05-19T00:26:31;8.63;;;3.63;;
11614;SDS011;5863;52.832;4.758;2023-05-19T00:28:57;9.68;;;3.90;;
11614;SDS011;5863;52.832;4.758;2023-05-19T00:31:24;9.43;;;4.40;;
11614;SDS011;5863;52.832;4.758;2023-05-19T00:33:51;7.70;;;3.90;;
11614;SDS011;5863;52.832;4.758;2023-05-19T00:36:18;8.32;;;3.50;;
11614;SDS011;5863;52.832;4.758;2023-05-19T00:38:45;10.00;;;3.67;;
11614;SDS011;5863;52.832;4.758;2023-05-19T00:41:11;11.93;;;4.38;;
11614;SDS011;5863;52.832;4.758;2023-05-19T00:43:39;8.32;;;3.60;;
11614;SDS011;5863;52.832;4.758;2023-05-19T00:46:06;8.75;;;4.15;;
11614;SDS011;5863;52.832;4.758;2023-05-19T00:48:34;9.00;;;4.05;;
11614;SDS011;5863;52.832;4.758;2023-05-19T00:51:01;12.25;;;4.15;;
11614;SDS011;5863;52.832;4.758;2023-05-19T00:53:30;11.57;;;4.18;;
11614;SDS011;5863;52.832;4.758;2023-05-19T00:55:59;11.30;;;4.20;;
11614;SDS011;5863;52.832;4.758;2023-05-19T00:58:26;10.23;;;3.70;;
11614;SDS011;5863;52.832;4.758;2023-05-19T01:00:58;10.07;;;4.70;;
11614;SDS011;5863;52.832;4.758;2023-05-19T01:03:27;10.13;;;3.80;;
11614;SDS011;5863;52.832;4.758;2023-05-19T01:05:55;8.95;;;4.00;;
11614;SDS011;5863;52.832;4.758;2023-05-19T01:08:26;6.05;;;3.83;;
11614;SDS011;5863;52.832;4.758;2023-05-19T01:10:53;7.07;;;4.03;;
11614;SDS011;5863;52.832;4.758;2023-05-19T01:13:19;8.85;;;4.18;;
11614;SDS011;5863;52.832;4.758;2023-05-19T01:15:57;7.47;;;3.58;;
11614;SDS011;5863;52.832;4.758;2023-05-19T01:18:30;9.77;;;4.00;;
11614;SDS011;5863;52.832;4.758;2023-05-19T01:21:12;10.68;;;4.63;;
11614;SDS011;5863;52.832;4.758;2023-05-19T01:24:01;11.85;;;4.32;;
11614;SDS011;5863;52.832;4.758;2023-05-19T01:26:44;11.60;;;4.00;;
11614;SDS011;5863;52.832;4.758;2023-05-19T01:29:28;10.57;;;4.70;;
11614;SDS011;5863;52.832;4.758;2023-05-19T01:32:07;8.50;;;3.90;;
11614;SDS011;5863;52.832;4.758;2023-05-19T01:34:38;12.50;;;4.72;;
11614;SDS011;5863;52.832;4.758;2023-05-19T01:37:08;16.13;;;4.78;;
11614;SDS011;5863;52.832;4.758;2023-05-19T01:39:36;11.10;;;4.28;;
11614;SDS011;5863;52.832;4.758;2023-05-19T01:42:03;14.55;;;4.50;;
11614;SDS011;5863;52.832;4.758;2023-05-19T01:44:30;11.30;;;4.22;;
11614;SDS011;5863;52.832;4.758;2023-05-19T01:46:58;11.30;;;3.85;;
11614;SDS011;5863;52.832;4.758;2023-05-19T01:49:27;8.27;;;3.92;;
11614;SDS011;5863;52.832;4.758;2023-05-19T01:51:53;8.82;;;4.55;;
11614;SDS011;5863;52.832;4.758;2023-05-19T01:54:21;11.43;;;4.38;;
11614;SDS011;5863;52.832;4.758;2023-05-19T01:56:51;10.38;;;4.30;;
11614;SDS011;5863;52.832;4.758;2023-05-19T01:59:26;9.05;;;4.05;;
11614;SDS011;5863;52.832;4.758;2023-05-19T02:02:00;8.13;;;3.92;;
11614;SDS011;5863;52.832;4.758;2023-05-19T02:04:35;6.50;;;3.63;;
11614;SDS011;5863;52.832;4.758;2023-05-19T02:07:09;9.63;;;3.90;;
11614;SDS011;5863;52.832;4.758;2023-05-19T02:09:55;6.75;;;4.07;;
11614;SDS011;5863;52.832;4.758;2023-05-19T02:12:31;7.70;;;4.03;;
11614;SDS011;5863;52.832;4.758;2023-05-19T02:15:03;7.57;;;4.38;;
11614;SDS011;5863;52.832;4.758;2023-05-19T02:17:32;8.57;;;3.88;;
11614;SDS011;5863;52.832;4.758;2023-05-19T02:20:02;8.63;;;3.88;;
11614;SDS011;5863;52.832;4.758;2023-05-19T02:22:30;8.95;;;3.95;;
11614;SDS011;5863;52.832;4.758;2023-05-19T02:24:57;6.38;;;3.83;;
11614;SDS011;5863;52.832;4.758;2023-05-19T02:27:25;10.70;;;4.05;;
11614;SDS011;5863;52.832;4.758;2023-05-19T02:29:52;11.75;;;4.28;;
11614;SDS011;5863;52.832;4.758;2023-05-19T02:32:19;8.57;;;4.25;;
11614;SDS011;5863;52.832;4.758;2023-05-19T02:34:46;7.38;;;4.15;;
11614;SDS011;5863;52.832;4.758;2023-05-19T02:37:14;8.93;;;3.67;;
11614;SDS011;5863;52.832;4.758;2023-05-19T02:39:41;6.18;;;3.90;;
11614;SDS011;5863;52.832;4.758;2023-05-19T02:42:08;10.30;;;4.53;;
11614;SDS011;5863;52.832;4.758;2023-05-19T02:44:36;6.68;;;3.97;;
11614;SDS011;5863;52.832;4.758;2023-05-19T02:47:02;7.72;;;4.30;;
11614;SDS011;5863;52.832;4.758;2023-05-19T02:49:29;12.10;;;3.90;;
11614;SDS011;5863;52.832;4.758;2023-05-19T02:51:59;8.63;;;4.40;;
11614;SDS011;5863;52.832;4.758;2023-05-19T02:54:27;11.38;;;4.57;;
11614;SDS011;5863;52.832;4.758;2023-05-19T02:56:54;8.70;;;4.32;;
11614;SDS011;5863;52.832;4.758;2023-05-19T02:59:21;11.40;;;4.63;;
11614;SDS011;5863;52.832;4.758;2023-05-19T03:01:48;8.40;;;4.57;;
11614;SDS011;5863;52.832;4.758;2023-05-19T03:04:15;8.85;;;3.92;;
11614;SDS011;5863;52.832;4.758;2023-05-19T03:06:44;8.52;;;4.20;;
11614;SDS011;5863;52.832;4.758;2023-05-19T03:09:10;11.50;;;4.88;;
11614;SDS011;5863;52.832;4.758;2023-05-19T03:11:39;9.57;;;4.50;;
11614;SDS011;5863;52.832;4.758;2023-05-19T03:14:07;7.85;;;4.47;;
11614;SDS011;5863;52.832;4.758;2023-05-19T03:16:35;9.52;;;4.30;;
11614;SDS011;5863;52.832;4.758;2023-05-19T03:19:02;12.50;;;4.90;;
11614;SDS011;5863;52.832;4.758;2023-05-19T03:21:28;8.70;;;4.00;;
11614;SDS011;5863;52.832;4.758;2023-05-19T03:23:55;7.63;;;4.35;;
11614;SDS011;5863;52.832;4.758;2023-05-19T03:26:24;12.70;;;4.75;;
11614;SDS011;5863;52.832;4.758;2023-05-19T03:28:52;11.00;;;4.90;;
11614;SDS011;5863;52.832;4.758;2023-05-19T03:31:19;6.65;;;4.43;;
11614;SDS011;5863;52.832;4.758;2023-05-19T03:33:46;12.18;;;5.30;;
11614;SDS011;5863;52.832;4.758;2023-05-19T03:36:13;11.38;;;4.82;;
11614;SDS011;5863;52.832;4.758;2023-05-19T03:38:40;6.43;;;4.40;;
11614;SDS011;5863;52.832;4.758;2023-05-19T03:41:06;9.00;;;4.45;;
11614;SDS011;5863;52.832;4.758;2023-05-19T03:43:33;9.57;;;4.38;;
11614;SDS011;5863;52.832;4.758;2023-05-19T03:46:01;8.98;;;4.70;;
11614;SDS011;5863;52.832;4.758;2023-05-19T03:48:28;10.05;;;4.60;;
11614;SDS011;5863;52.832;4.758;2023-05-19T03:50:54;11.75;;;4.75;;
11614;SDS011;5863;52.832;4.758;2023-05-19T03:53:21;9.05;;;4.30;;
11614;SDS011;5863;52.832;4.758;2023-05-19T03:55:49;10.85;;;4.65;;
11614;SDS011;5863;52.832;4.758;2023-05-19T03:58:16;9.10;;;4.45;;
11614;SDS011;5863;52.832;4.758;2023-05-19T04:00:43;10.00;;;4.20;;
11614;SDS011;5863;52.832;4.758;2023-05-19T04:03:11;8.05;;;4.78;;
11614;SDS011;5863;52.832;4.758;2023-05-19T04:05:38;8.60;;;5.15;;
11614;SDS011;5863;52.832;4.758;2023-05-19T04:08:04;13.65;;;5.35;;
11614;SDS011;5863;52.832;4.758;2023-05-19T04:10:31;12.00;;;5.32;;
11614;SDS011;5863;52.832;4.758;2023-05-19T04:12:58;9.15;;;4.30;;
11614;SDS011;5863;52.832;4.758;2023-05-19T04:15:25;9.93;;;5.00;;
11614;SDS011;5863;52.832;4.758;2023-05-19T04:17:52;9.15;;;4.85;;
11614;SDS011;5863;52.832;4.758;2023-05-19T04:20:20;10.48;;;4.30;;
11614;SDS011;5863;52.832;4.758;2023-05-19T04:22:46;7.32;;;4.47;;
11614;SDS011;5863;52.832;4.758;2023-05-19T04:25:13;11.40;;;5.10;;
11614;SDS011;5863;52.832;4.758;2023-05-19T04:27:40;11.75;;;4.43;;
11614;SDS011;5863;52.832;4.758;2023-05-19T04:30:07;10.00;;;4.75;;
11614;SDS011;5863;52.832;4.758;2023-05-19T04:32:34;7.53;;;4.70;;
11614;SDS011;5863;52.832;4.758;2023-05-19T04:35:01;12.05;;;4.88;;
11614;SDS011;5863;52.832;4.758;2023-05-19T04:37:30;11.27;;;4.90;;
11614;SDS011;5863;52.832;4.758;2023-05-19T04:39:56;10.82;;;4.88;;
11614;SDS011;5863;52.832;4.758;2023-05-19T04:42:23;8.10;;;4.43;;
11614;SDS011;5863;52.832;4.758;2023-05-19T04:44:50;10.20;;;5.00;;
11614;SDS011;5863;52.832;4.758;2023-05-19T04:47:16;9.98;;;4.20;;
11614;SDS011;5863;52.832;4.758;2023-05-19T04:49:45;6.53;;;4.18;;
11614;SDS011;5863;52.832;4.758;2023-05-19T04:52:11;9.90;;;4.35;;
11614;SDS011;5863;52.832;4.758;2023-05-19T04:54:39;9.18;;;4.00;;
11614;SDS011;5863;52.832;4.758;2023-05-19T04:57:06;7.13;;;4.30;;
11614;SDS011;5863;52.832;4.758;2023-05-19T04:59:34;8.23;;;4.45;;
11614;SDS011;5863;52.832;4.758;2023-05-19T05:02:01;7.70;;;4.22;;
11614;SDS011;5863;52.832;4.758;2023-05-19T05:04:28;6.95;;;3.67;;
11614;SDS011;5863;52.832;4.758;2023-05-19T05:06:54;12.48;;;4.25;;
11614;SDS011;5863;52.832;4.758;2023-05-19T05:09:21;8.20;;;4.07;;
11614;SDS011;5863;52.832;4.758;2023-05-19T05:11:49;8.10;;;3.30;;
11614;SDS011;5863;52.832;4.758;2023-05-19T05:14:17;11.07;;;3.97;;
11614;SDS011;5863;52.832;4.758;2023-05-19T05:16:44;5.85;;;3.17;;
11614;SDS011;5863;52.832;4.758;2023-05-19T05:19:11;7.72;;;3.42;;
11614;SDS011;5863;52.832;4.758;2023-05-19T05:21:38;7.32;;;3.72;;
11614;SDS011;5863;52.832;4.758;2023-05-19T05:24:07;7.30;;;3.28;;
11614;SDS011;5863;52.832;4.758;2023-05-19T05:26:35;7.47;;;3.58;;
11614;SDS011;5863;52.832;4.758;2023-05-19T05:29:04;8.60;;;3.45;;
11614;SDS011;5863;52.832;4.758;2023-05-19T05:31:31;9.90;;;3.60;;
11614;SDS011;5863;52.832;4.758;2023-05-19T05:33:58;7.18;;;3.50;;
11614;SDS011;5863;52.832;4.758;2023-05-19T05:36:25;7.30;;;3.28;;
11614;SDS011;5863;52.832;4.758;2023-05-19T05:38:51;7.38;;;3.00;;
11614;SDS011;5863;52.832;4.758;2023-05-19T05:41:18;10.50;;;3.42;;
11614;SDS011;5863;52.832;4.758;2023-05-19T05:43:46;8.60;;;3.45;;
11614;SDS011;5863;52.832;4.758;2023-05-19T05:46:14;8.30;;;3.20;;
11614;SDS011;5863;52.832;4.758;2023-05-19T05:48:41;7.60;;;3.22;;
11614;SDS011;5863;52.832;4.758;2023-05-19T05:51:09;7.15;;;3.30;;
11614;SDS011;5863;52.832;4.758;2023-05-19T05:53:36;6.47;;;3.05;;
11614;SDS011;5863;52.832;4.758;2023-05-19T05:56:07;9.82;;;3.55;;
11614;SDS011;5863;52.832;4.758;2023-05-19T05:58:35;10.25;;;3.25;;
11614;SDS011;5863;52.832;4.758;2023-05-19T06:01:04;8.60;;;3.30;;
11614;SDS011;5863;52.832;4.758;2023-05-19T06:03:35;8.55;;;3.00;;
11614;SDS011;5863;52.832;4.758;2023-05-19T06:06:03;8.88;;;3.55;;
11614;SDS011;5863;52.832;4.758;2023-05-19T06:08:30;7.95;;;3.58;;
11614;SDS011;5863;52.832;4.758;2023-05-19T06:10:57;5.10;;;3.25;;
11614;SDS011;5863;52.832;4.758;2023-05-19T06:13:24;8.93;;;3.22;;
11614;SDS011;5863;52.832;4.758;2023-05-19T06:15:51;10.02;;;3.63;;
11614;SDS011;5863;52.832;4.758;2023-05-19T06:18:18;7.82;;;3.45;;
11614;SDS011;5863;52.832;4.758;2023-05-19T06:20:46;7.43;;;3.13;;
11614;SDS011;5863;52.832;4.758;2023-05-19T06:23:13;6.47;;;3.13;;
11614;SDS011;5863;52.832;4.758;2023-05-19T06:25:40;9.82;;;3.60;;
11614;SDS011;5863;52.832;4.758;2023-05-19T06:28:07;7.55;;;3.15;;
11614;SDS011;5863;52.832;4.758;2023-05-19T06:30:33;8.02;;;3.20;;
11614;SDS011;5863;52.832;4.758;2023-05-19T06:33:02;10.93;;;3.58;;
11614;SDS011;5863;52.832;4.758;2023-05-19T06:35:29;5.78;;;2.83;;
11614;SDS011;5863;52.832;4.758;2023-05-19T06:37:57;8.20;;;3.40;;
11614;SDS011;5863;52.832;4.758;2023-05-19T06:40:24;8.32;;;3.40;;
11614;SDS011;5863;52.832;4.758;2023-05-19T06:42:51;6.70;;;3.10;;
11614;SDS011;5863;52.832;4.758;2023-05-19T06:45:17;10.80;;;3.58;;
11614;SDS011;5863;52.832;4.758;2023-05-19T06:47:46;6.70;;;3.17;;
11614;SDS011;5863;52.832;4.758;2023-05-19T06:50:13;8.02;;;3.30;;
11614;SDS011;5863;52.832;4.758;2023-05-19T06:52:39;11.95;;;3.58;;
11614;SDS011;5863;52.832;4.758;2023-05-19T06:55:08;7.53;;;3.03;;
11614;SDS011;5863;52.832;4.758;2023-05-19T06:57:35;5.72;;;2.60;;
11614;SDS011;5863;52.832;4.758;2023-05-19T07:00:01;7.30;;;2.88;;
11614;SDS011;5863;52.832;4.758;2023-05-19T07:02:29;7.30;;;3.00;;
11614;SDS011;5863;52.832;4.758;2023-05-19T07:04:56;6.32;;;3.03;;
11614;SDS011;5863;52.832;4.758;2023-05-19T07:07:23;7.22;;;2.92;;
11614;SDS011;5863;52.832;4.758;2023-05-19T07:09:50;10.27;;;3.33;;
11614;SDS011;5863;52.832;4.758;2023-05-19T07:12:18;6.75;;;3.03;;
11614;SDS011;5863;52.832;4.758;2023-05-19T07:14:45;8.75;;;3.33;;
11614;SDS011;5863;52.832;4.758;2023-05-19T07:17:11;7.70;;;2.75;;
11614;SDS011;5863;52.832;4.758;2023-05-19T07:19:38;8.10;;;2.92;;
11614;SDS011;5863;52.832;4.758;2023-05-19T07:22:05;9.25;;;3.00;;
11614;SDS011;5863;52.832;4.758;2023-05-19T07:24:32;6.45;;;3.10;;
11614;SDS011;5863;52.832;4.758;2023-05-19T07:26:58;8.18;;;3.50;;
11614;SDS011;5863;52.832;4.758;2023-05-19T07:29:26;8.75;;;3.25;;
11614;SDS011;5863;52.832;4.758;2023-05-19T07:31:53;9.82;;;2.80;;
11614;SDS011;5863;52.832;4.758;2023-05-19T07:34:21;7.07;;;2.72;;
11614;SDS011;5863;52.832;4.758;2023-05-19T07:36:49;6.75;;;2.92;;
11614;SDS011;5863;52.832;4.758;2023-05-19T07:39:16;5.32;;;2.70;;
11614;SDS011;5863;52.832;4.758;2023-05-19T07:41:43;6.63;;;2.95;;
11614;SDS011;5863;52.832;4.758;2023-05-19T07:44:17;6.80;;;3.10;;
11614;SDS011;5863;52.832;4.758;2023-05-19T07:46:45;5.95;;;2.85;;
11614;SDS011;5863;52.832;4.758;2023-05-19T07:49:12;7.60;;;2.80;;
11614;SDS011;5863;52.832;4.758;2023-05-19T07:51:39;7.47;;;2.78;;
11614;SDS011;5863;52.832;4.758;2023-05-19T07:54:06;5.50;;;2.60;;
11614;SDS011;5863;52.832;4.758;2023-05-19T07:56:33;8.35;;;2.72;;
11614;SDS011;5863;52.832;4.758;2023-05-19T07:59:00;8.20;;;3.20;;
11614;SDS011;5863;52.832;4.758;2023-05-19T08:01:26;5.10;;;2.78;;
11614;SDS011;5863;52.832;4.758;2023-05-19T08:03:55;8.82;;;3.15;;
11614;SDS011;5863;52.832;4.758;2023-05-19T08:06:22;7.00;;;3.00;;
11614;SDS011;5863;52.832;4.758;2023-05-19T08:08:49;5.45;;;3.28;;
11614;SDS011;5863;52.832;4.758;2023-05-19T08:11:16;6.78;;;2.83;;
11614;SDS011;5863;52.832;4.758;2023-05-19T08:13:43;8.52;;;3.25;;
11614;SDS011;5863;52.832;4.758;2023-05-19T08:16:12;5.38;;;2.50;;
11614;SDS011;5863;52.832;4.758;2023-05-19T08:18:39;9.13;;;3.20;;
11614;SDS011;5863;52.832;4.758;2023-05-19T08:21:07;12.50;;;3.25;;
11614;SDS011;5863;52.832;4.758;2023-05-19T08:23:33;6.63;;;2.63;;
11614;SDS011;5863;52.832;4.758;2023-05-19T08:26:01;7.57;;;2.97;;
11614;SDS011;5863;52.832;4.758;2023-05-19T08:28:28;8.02;;;2.92;;
11614;SDS011;5863;52.832;4.758;2023-05-19T08:30:54;6.10;;;3.47;;
11614;SDS011;5863;52.832;4.758;2023-05-19T08:33:21;7.75;;;2.75;;
11614;SDS011;5863;52.832;4.758;2023-05-19T08:35:48;6.97;;;2.88;;
11614;SDS011;5863;52.832;4.758;2023-05-19T08:38:16;5.55;;;2.75;;
11614;SDS011;5863;52.832;4.758;2023-05-19T08:40:43;6.88;;;3.50;;
11614;SDS011;5863;52.832;4.758;2023-05-19T08:43:12;8.60;;;3.05;;
11614;SDS011;5863;52.832;4.758;2023-05-19T08:45:39;10.80;;;3.20;;
11614;SDS011;5863;52.832;4.758;2023-05-19T08:48:08;8.23;;;2.80;;
11614;SDS011;5863;52.832;4.758;2023-05-19T08:50:38;6.95;;;2.78;;
11614;SDS011;5863;52.832;4.758;2023-05-19T08:53:07;8.00;;;3.20;;
11614;SDS011;5863;52.832;4.758;2023-05-19T08:55:40;7.43;;;2.90;;
11614;SDS011;5863;52.832;4.758;2023-05-19T08:58:15;7.43;;;3.17;;
11614;SDS011;5863;52.832;4.758;2023-05-19T09:00:44;4.65;;;2.95;;
11614;SDS011;5863;52.832;4.758;2023-05-19T09:03:11;10.30;;;2.97;;
11614;SDS011;5863;52.832;4.758;2023-05-19T09:05:39;5.65;;;2.80;;
11614;SDS011;5863;52.832;4.758;2023-05-19T09:08:06;7.15;;;2.63;;
11614;SDS011;5863;52.832;4.758;2023-05-19T09:10:33;5.78;;;2.60;;
11614;SDS011;5863;52.832;4.758;2023-05-19T09:13:01;6.25;;;2.53;;
11614;SDS011;5863;52.832;4.758;2023-05-19T09:15:27;8.10;;;3.05;;
11614;SDS011;5863;52.832;4.758;2023-05-19T09:18:04;7.43;;;2.63;;
11614;SDS011;5863;52.832;4.758;2023-05-19T09:20:35;5.70;;;2.75;;
11614;SDS011;5863;52.832;4.758;2023-05-19T09:23:03;4.90;;;2.80;;
11614;SDS011;5863;52.832;4.758;2023-05-19T09:25:30;8.70;;;2.63;;
11614;SDS011;5863;52.832;4.758;2023-05-19T09:27:57;7.57;;;2.70;;
11614;SDS011;5863;52.832;4.758;2023-05-19T09:30:25;7.22;;;2.72;;
11614;SDS011;5863;52.832;4.758;2023-05-19T09:32:52;7.18;;;2.85;;
11614;SDS011;5863;52.832;4.758;2023-05-19T09:35:18;9.65;;;2.85;;
11614;SDS011;5863;52.832;4.758;2023-05-19T09:37:45;7.88;;;2.50;;
11614;SDS011;5863;52.832;4.758;2023-05-19T09:40:12;6.03;;;2.72;;
11614;SDS011;5863;52.832;4.758;2023-05-19T09:42:40;7.03;;;2.63;;
11614;SDS011;5863;52.832;4.758;2023-05-19T09:45:08;7.32;;;3.05;;
11614;SDS011;5863;52.832;4.758;2023-05-19T09:47:37;6.60;;;3.08;;
11614;SDS011;5863;52.832;4.758;2023-05-19T09:50:05;8.13;;;3.00;;
11614;SDS011;5863;52.832;4.758;2023-05-19T09:52:36;7.40;;;2.95;;
11614;SDS011;5863;52.832;4.758;2023-05-19T09:55:05;4.93;;;2.97;;
11614;SDS011;5863;52.832;4.758;2023-05-19T09:57:35;5.55;;;2.63;;
11614;SDS011;5863;52.832;4.758;2023-05-19T10:00:03;9.25;;;3.47;;
11614;SDS011;5863;52.832;4.758;2023-05-19T10:02:39;7.35;;;3.45;;
11614;SDS011;5863;52.832;4.758;2023-05-19T10:05:07;10.73;;;3.40;;
11614;SDS011;5863;52.832;4.758;2023-05-19T10:07:35;6.93;;;2.95;;
11614;SDS011;5863;52.832;4.758;2023-05-19T10:10:04;5.45;;;3.00;;
11614;SDS011;5863;52.832;4.758;2023-05-19T10:12:35;11.45;;;3.22;;
11614;SDS011;5863;52.832;4.758;2023-05-19T10:15:04;7.18;;;3.00;;
11614;SDS011;5863;52.832;4.758;2023-05-19T10:17:34;5.72;;;2.45;;
11614;SDS011;5863;52.832;4.758;2023-05-19T10:20:04;4.45;;;2.45;;
11614;SDS011;5863;52.832;4.758;2023-05-19T10:22:35;4.65;;;2.33;;
11614;SDS011;5863;52.832;4.758;2023-05-19T10:25:02;5.65;;;2.55;;
11614;SDS011;5863;52.832;4.758;2023-05-19T10:27:29;3.28;;;2.30;;
11614;SDS011;5863;52.832;4.758;2023-05-19T10:29:58;5.07;;;2.60;;
11614;SDS011;5863;52.832;4.758;2023-05-19T10:32:29;5.40;;;2.88;;
11614;SDS011;5863;52.832;4.758;2023-05-19T10:38:11;4.47;;;2.67;;
11614;SDS011;5863;52.832;4.758;2023-05-19T10:40:49;6.68;;;2.58;;
11614;SDS011;5863;52.832;4.758;2023-05-19T10:43:24;7.47;;;2.65;;
11614;SDS011;5863;52.832;4.758;2023-05-19T10:46:02;6.13;;;3.25;;
11614;SDS011;5863;52.832;4.758;2023-05-19T10:48:32;8.52;;;2.97;;
11614;SDS011;5863;52.832;4.758;2023-05-19T10:51:01;5.68;;;2.90;;
11614;SDS011;5863;52.832;4.758;2023-05-19T10:53:29;4.97;;;2.67;;
11614;SDS011;5863;52.832;4.758;2023-05-19T10:55:56;9.25;;;3.35;;
11614;SDS011;5863;52.832;4.758;2023-05-19T10:58:36;4.68;;;2.75;;
11614;SDS011;5863;52.832;4.758;2023-05-19T11:01:07;6.53;;;3.10;;
11614;SDS011;5863;52.832;4.758;2023-05-19T11:03:44;5.57;;;2.63;;
11614;SDS011;5863;52.832;4.758;2023-05-19T11:06:20;5.47;;;2.78;;
11614;SDS011;5863;52.832;4.758;2023-05-19T11:08:51;7.63;;;2.95;;
11614;SDS011;5863;52.832;4.758;2023-05-19T11:11:19;5.70;;;2.60;;
11614;SDS011;5863;52.832;4.758;2023-05-19T11:13:46;6.55;;;2.70;;
11614;SDS011;5863;52.832;4.758;2023-05-19T11:16:17;11.13;;;3.35;;
11614;SDS011;5863;52.832;4.758;2023-05-19T11:18:47;8.27;;;2.83;;
11614;SDS011;5863;52.832;4.758;2023-05-19T11:21:15;6.85;;;3.33;;
11614;SDS011;5863;52.832;4.758;2023-05-19T11:23:46;5.82;;;2.65;;
11614;SDS011;5863;52.832;4.758;2023-05-19T11:26:12;5.95;;;3.00;;
11614;SDS011;5863;52.832;4.758;2023-05-19T11:28:39;7.38;;;3.10;;
11614;SDS011;5863;52.832;4.758;2023-05-19T11:31:06;6.50;;;3.20;;
11614;SDS011;5863;52.832;4.758;2023-05-19T11:33:35;6.97;;;3.38;;
11614;SDS011;5863;52.832;4.758;2023-05-19T11:36:04;7.78;;;3.67;;
11614;SDS011;5863;52.832;4.758;2023-05-19T11:38:33;7.55;;;3.20;;
11614;SDS011;5863;52.832;4.758;2023-05-19T11:41:00;8.27;;;3.30;;
11614;SDS011;5863;52.832;4.758;2023-05-19T11:43:28;9.68;;;3.90;;
11614;SDS011;5863;52.832;4.758;2023-05-19T11:45:55;7.82;;;3.90;;
11614;SDS011;5863;52.832;4.758;2023-05-19T11:48:22;7.65;;;4.28;;
11614;SDS011;5863;52.832;4.758;2023-05-19T11:50:49;6.97;;;3.83;;
11614;SDS011;5863;52.832;4.758;2023-05-19T11:53:16;8.77;;;4.13;;
11614;SDS011;5863;52.832;4.758;2023-05-19T11:55:46;6.45;;;3.65;;
11614;SDS011;5863;52.832;4.758;2023-05-19T11:58:13;7.97;;;3.70;;
11614;SDS011;5863;52.832;4.758;2023-05-19T12:00:41;8.05;;;3.38;;
11614;SDS011;5863;52.832;4.758;2023-05-19T12:03:10;8.75;;;3.60;;
11614;SDS011;5863;52.832;4.758;2023-05-19T12:05:37;6.25;;;3.70;;
11614;SDS011;5863;52.832;4.758;2023-05-19T12:08:08;7.70;;;4.10;;
11614;SDS011;5863;52.832;4.758;2023-05-19T12:10:34;7.78;;;4.05;;
11614;SDS011;5863;52.832;4.758;2023-05-19T12:13:03;8.25;;;3.78;;
11614;SDS011;5863;52.832;4.758;2023-05-19T12:15:32;8.13;;;3.60;;
11614;SDS011;5863;52.832;4.758;2023-05-19T12:18:00;7.38;;;3.22;;
11614;SDS011;5863;52.832;4.758;2023-05-19T12:20:28;6.88;;;3.90;;
11614;SDS011;5863;52.832;4.758;2023-05-19T12:22:56;8.13;;;3.60;;
11614;SDS011;5863;52.832;4.758;2023-05-19T12:25:25;5.68;;;3.25;;
11614;SDS011;5863;52.832;4.758;2023-05-19T12:27:55;7.85;;;3.53;;
11614;SDS011;5863;52.832;4.758;2023-05-19T12:30:25;6.75;;;3.38;;
11614;SDS011;5863;52.832;4.758;2023-05-19T12:32:53;6.03;;;3.30;;
11614;SDS011;5863;52.832;4.758;2023-05-19T12:35:24;9.85;;;4.03;;
11614;SDS011;5863;52.832;4.758;2023-05-19T12:37:51;7.93;;;3.38;;
11614;SDS011;5863;52.832;4.758;2023-05-19T12:40:18;7.97;;;3.60;;
11614;SDS011;5863;52.832;4.758;2023-05-19T12:42:45;6.70;;;3.65;;
11614;SDS011;5863;52.832;4.758;2023-05-19T12:45:12;9.07;;;3.85;;
11614;SDS011;5863;52.832;4.758;2023-05-19T12:47:40;9.15;;;3.83;;
11614;SDS011;5863;52.832;4.758;2023-05-19T12:50:12;7.25;;;3.50;;
11614;SDS011;5863;52.832;4.758;2023-05-19T12:52:40;11.40;;;3.80;;
11614;SDS011;5863;52.832;4.758;2023-05-19T12:55:08;10.90;;;3.92;;
11614;SDS011;5863;52.832;4.758;2023-05-19T12:57:36;6.65;;;3.42;;
11614;SDS011;5863;52.832;4.758;2023-05-19T13:00:04;8.85;;;4.22;;
11614;SDS011;5863;52.832;4.758;2023-05-19T13:02:34;7.53;;;3.45;;
11614;SDS011;5863;52.832;4.758;2023-05-19T13:05:21;5.22;;;3.30;;
11614;SDS011;5863;52.832;4.758;2023-05-19T13:07:52;7.18;;;3.13;;
11614;SDS011;5863;52.832;4.758;2023-05-19T13:10:22;8.43;;;3.70;;
11614;SDS011;5863;52.832;4.758;2023-05-19T13:12:51;7.50;;;3.30;;
11614;SDS011;5863;52.832;4.758;2023-05-19T13:15:17;7.88;;;3.30;;
11614;SDS011;5863;52.832;4.758;2023-05-19T13:17:44;8.23;;;3.47;;
11614;SDS011;5863;52.832;4.758;2023-05-19T13:20:11;7.72;;;2.80;;
11614;SDS011;5863;52.832;4.758;2023-05-19T13:22:39;6.43;;;3.35;;
11614;SDS011;5863;52.832;4.758;2023-05-19T13:25:07;6.53;;;3.00;;
11614;SDS011;5863;52.832;4.758;2023-05-19T13:27:34;13.30;;;3.50;;
11614;SDS011;5863;52.832;4.758;2023-05-19T13:30:01;5.75;;;3.38;;
11614;SDS011;5863;52.832;4.758;2023-05-19T13:32:28;7.38;;;3.15;;
11614;SDS011;5863;52.832;4.758;2023-05-19T13:34:55;8.25;;;3.50;;
11614;SDS011;5863;52.832;4.758;2023-05-19T13:37:22;7.28;;;3.05;;
11614;SDS011;5863;52.832;4.758;2023-05-19T13:39:50;6.95;;;3.20;;
11614;SDS011;5863;52.832;4.758;2023-05-19T13:42:17;6.47;;;3.38;;
11614;SDS011;5863;52.832;4.758;2023-05-19T13:44:43;6.90;;;3.50;;
11614;SDS011;5863;52.832;4.758;2023-05-19T13:47:10;6.45;;;2.95;;
11614;SDS011;5863;52.832;4.758;2023-05-19T13:49:37;7.93;;;3.47;;
11614;SDS011;5863;52.832;4.758;2023-05-19T13:52:05;5.72;;;2.90;;
11614;SDS011;5863;52.832;4.758;2023-05-19T13:57:07;7.80;;;3.10;;
11614;SDS011;5863;52.832;4.758;2023-05-19T13:59:34;6.25;;;3.08;;
11614;SDS011;5863;52.832;4.758;2023-05-19T14:02:01;5.97;;;2.47;;
11614;SDS011;5863;52.832;4.758;2023-05-19T14:04:28;5.30;;;2.20;;
11614;SDS011;5863;52.832;4.758;2023-05-19T14:06:54;9.18;;;2.58;;
11614;SDS011;5863;52.832;4.758;2023-05-19T14:09:22;7.30;;;2.85;;
11614;SDS011;5863;52.832;4.758;2023-05-19T14:11:49;4.35;;;2.40;;
11614;SDS011;5863;52.832;4.758;2023-05-19T14:14:17;4.90;;;2.13;;
11614;SDS011;5863;52.832;4.758;2023-05-19T14:16:43;6.70;;;2.72;;
11614;SDS011;5863;52.832;4.758;2023-05-19T14:19:10;3.17;;;2.13;;
11614;SDS011;5863;52.832;4.758;2023-05-19T14:21:37;6.15;;;2.10;;
11614;SDS011;5863;52.832;4.758;2023-05-19T14:24:04;6.68;;;2.35;;
11614;SDS011;5863;52.832;4.758;2023-05-19T14:26:31;5.03;;;2.40;;
11614;SDS011;5863;52.832;4.758;2023-05-19T14:28:58;4.05;;;2.40;;
11614;SDS011;5863;52.832;4.758;2023-05-19T14:31:27;7.03;;;2.17;;
11614;SDS011;5863;52.832;4.758;2023-05-19T14:33:53;7.78;;;2.63;;
11614;SDS011;5863;52.832;4.758;2023-05-19T14:36:20;5.65;;;1.98;;
11614;SDS011;5863;52.832;4.758;2023-05-19T14:38:46;4.57;;;2.30;;
11614;SDS011;5863;52.832;4.758;2023-05-19T14:41:13;4.18;;;2.17;;
11614;SDS011;5863;52.832;4.758;2023-05-19T14:43:40;4.85;;;2.00;;
11614;SDS011;5863;52.832;4.758;2023-05-19T14:46:08;4.82;;;2.35;;
11614;SDS011;5863;52.832;4.758;2023-05-19T14:48:36;8.18;;;2.63;;
11614;SDS011;5863;52.832;4.758;2023-05-19T14:51:02;7.70;;;2.28;;
11614;SDS011;5863;52.832;4.758;2023-05-19T14:53:29;5.50;;;2.40;;
11614;SDS011;5863;52.832;4.758;2023-05-19T14:55:56;6.13;;;2.63;;
11614;SDS011;5863;52.832;4.758;2023-05-19T14:58:22;6.95;;;2.38;;
11614;SDS011;5863;52.832;4.758;2023-05-19T15:00:49;6.45;;;2.70;;
11614;SDS011;5863;52.832;4.758;2023-05-19T15:03:16;4.95;;;2.45;;
11614;SDS011;5863;52.832;4.758;2023-05-19T15:05:44;6.40;;;2.60;;
11614;SDS011;5863;52.832;4.758;2023-05-19T15:08:13;4.85;;;2.40;;
11614;SDS011;5863;52.832;4.758;2023-05-19T15:10:39;5.00;;;2.58;;